KCGI/CGI METAR and TAF weather

Enter ICAO airport designator
Station Type Date Time Source
KCGI METAR 2022/05/23 13:53 UTC NOAA

KCGI 231353Z 04014KT 10SM SCT045 SCT065 OVC100 16/08 A3022 RMK AO2 SLP230 T01610083


Station Type Date Time Source
KCGI Decoded METAR 2022/05/23 13:53 UTC NOAA

CAPE GIRARDEAU REGIONAL, MO, United States (KCGI) 37-14N 089-35W 102M
May 23, 2022 - 09:53 AM EDT / 2022.05.23 1353 UTC
Wind: from the NE (040 degrees) at 16 MPH (14 KT):0
Visibility: 10 mile(s):0
Sky conditions: overcast
Temperature: 61.0 F (16.1 C)
Dew Point: 46.9 F (8.3 C)
Relative Humidity: 59%
Pressure (altimeter): 30.22 in. Hg (1023 hPa)
ob: KCGI 231353Z 04014KT 10SM SCT045 SCT065 OVC100 16/08 A3022 RMK AO2 SLP230 T01610083
cycle: 14

Station Type Date Time Source
KCGI TAF 2022/05/23 12:22 UTC NOAA

TAF KCGI 231120Z 2312/2412 03010KT P6SM OVC045
FM231400 05011G19KT P6SM BKN050
FM240000 06004KT P6SM SCT070

Example: see airport list